Latest Weather Observations for Tunnack

IDT60801

Issued at 3:32 pm EST Sunday 20 August 2017 (issued every 30 minutes, with the page automatically refreshed every 10 minutes)

About weather observations | Map of weather stations | Latest weather observations for TAS | Other Formats
Station Details ID: 094195 Name: TUNNACK FIRE STATION Lat: -42.45 Lon: 147.46 Height: 461.5 m
Data from the previous 72 hours. | See also: Recent months at Tunnack
Date/Time
EST
Temp
°C
App
Temp
°C
Dew
Point
°C
Rel
Hum
%
Delta-T
°C
Wind Press
QNH
hPa
Press
MSL
hPa
Rain since
9am
mm
Dir  Spd
km/h
Gust
km/h
Spd
kts
Gust
kts
20/03:30pm 8.5 4.6 1.4 61 3.0 W 11 19 6 10 1017.6 1018.5 0.0
20/03:00pm 8.7 5.6 1.1 59 3.2 WSW 7 13 4 7 1017.6 1018.5 0.0
20/02:30pm 8.1 4.2 1.3 62 2.8 WSW 11 15 6 8 1017.8 1018.8 0.0
20/02:00pm 8.4 3.1 1.6 62 2.9 NW 19 24 10 13 1018.1 1019.1 0.0
20/01:30pm 8.2 4.4 1.8 64 2.7 W 11 19 6 10 1018.5 1019.5 0.0
20/01:00pm 7.9 2.3 1.5 64 2.7 W 20 26 11 14 1018.9 1019.9 0.0
20/12:30pm 8.0 3.4 1.6 64 2.7 WSW 15 20 8 11 1019.3 1020.2 0.0
20/12:00pm 8.7 3.8 2.1 63 2.8 W 17 26 9 14 1019.9 1020.9 0.0
20/11:30am 8.2 3.7 2.0 65 2.6 W 15 22 8 12 1020.4 1021.4 0.0
20/11:00am 7.3 2.8 2.0 69 2.2 WNW 15 26 8 14 1020.8 1021.8 0.0
20/10:30am 6.6 1.1 1.7 71 2.0 WNW 20 26 11 14 1021.0 1022.0 0.0
20/10:00am 6.7 1.2 2.0 72 2.0 NW 20 26 11 14 1021.1 1022.1 0.0
20/09:30am 5.5 0.1 1.4 75 1.7 NW 19 24 10 13 1021.1 1022.1 0.0
20/09:00am 4.6 0.4 1.6 81 1.2 WNW 13 20 7 11 1021.2 1022.2 0.0
20/08:30am 1.6 -0.7 0.4 92 0.5 E 2 6 1 3 1021.6 1022.6 0.0
20/08:00am -0.7 -3.3 -1.7 93 0.3 S 2 7 1 4 1021.6 1022.6 0.0
20/07:30am -1.1 -4.5 -2.1 93 0.3 WNW 6 7 3 4 1021.6 1022.6 0.0
20/07:00am -1.8 -5.3 -2.6 94 0.2 SE 6 9 3 5 1021.4 1022.5 0.0
20/06:30am -2.5 -5.3 -3.5 93 0.2 ESE 2 6 1 3 1021.3 1022.4 0.0
20/06:00am -3.1 -6.8 -4.8 88 0.4 NW 6 9 3 5 1021.2 1022.2 0.0
20/05:30am -1.4 -4.8 -2.2 94 0.2 NW 6 9 3 5 1021.2 1022.2 0.0
20/05:00am -2.0 -5.1 -2.7 95 0.1 N 4 7 2 4 1021.4 1022.5 0.0
20/04:30am -3.2 -6.4 -3.9 95 0.1 ENE 4 9 2 5 1021.4 1022.5 0.0
20/04:00am -2.7 -5.5 -3.4 95 0.1 ESE 2 7 1 4 1021.2 1022.2 0.0
20/03:30am -2.6 -6.2 -3.3 95 0.1 NW 6 9 3 5 1021.4 1022.5 0.0
20/03:00am -2.6 -6.2 -3.4 94 0.2 W 6 7 3 4 1021.4 1022.5 0.0
20/02:30am -2.5 -4.9 -3.5 93 0.2 CALM 0 0 0 0 1021.8 1022.8 0.0
20/02:00am -2.3 -5.5 -3.6 91 0.3 ENE 4 9 2 5 1022.1 1023.1 0.0
20/01:30am -1.6 -5.7 -2.9 91 0.4 WNW 9 11 5 6 1022.2 1023.2 0.0
20/01:00am -0.1 -4.0 -1.4 91 0.5 W 9 13 5 7 1022.2 1023.2 0.0
20/12:30am -0.6 -4.9 -1.6 93 0.3 WNW 11 15 6 8 1022.3 1023.3 0.0
20/12:00am -0.9 -4.3 -1.7 94 0.2 W 6 11 3 6 1022.2 1023.2 0.0
 
Date/Time
EST
Temp
°C
App
Temp
°C
Dew
Point
°C
Rel
Hum
%
Delta-T
°C
Wind Press
QNH
hPa
Press
MSL
hPa
Rain since
9am
mm
Dir  Spd
km/h
Gust
km/h
Spd
kts
Gust
kts
19/11:30pm -1.3 -3.6 -2.1 94 0.2 CALM 0 7 0 4 1022.1 1023.1 0.0
19/11:00pm -0.7 -4.3 -1.8 92 0.4 WNW 7 11 4 6 1022.1 1023.1 0.0
19/10:30pm -0.3 -4.6 -1.4 92 0.4 WNW 11 15 6 8 1022.3 1023.3 0.0
19/10:00pm 0.0 -3.9 -1.3 91 0.5 W 9 13 5 7 1022.4 1023.4 0.0
19/09:30pm 0.6 -3.2 -1.0 89 0.6 WNW 9 13 5 7 1022.4 1023.4 0.0
19/09:00pm 0.8 -3.1 -1.4 85 0.8 WNW 9 17 5 9 1022.5 1023.5 0.0
19/08:30pm 1.5 -2.7 -1.1 83 1.0 WSW 11 17 6 9 1022.4 1023.4 0.0
19/08:00pm 1.7 -2.9 -0.9 83 1.0 W 13 17 7 9 1022.5 1023.5 0.0
19/07:30pm 2.7 -2.3 -1.1 76 1.4 WSW 15 22 8 12 1022.5 1023.5 0.0
19/07:00pm 3.0 -1.9 -0.8 76 1.4 WSW 15 22 8 12 1022.4 1023.4 0.0
19/06:30pm 2.7 -1.4 -0.2 81 1.1 WSW 11 19 6 10 1022.3 1023.3 0.0
19/06:00pm 3.4 -0.7 -0.2 77 1.4 WSW 11 19 6 10 1022.2 1023.2 0.0
19/05:30pm 4.2 -0.3 0.0 74 1.6 WSW 13 22 7 12 1022.0 1023.0 0.0
19/05:00pm 5.5 0.7 0.3 69 2.1 WSW 15 22 8 12 1021.8 1022.8 0.0
19/04:30pm 6.1 0.9 0.2 66 2.4 WSW 17 24 9 13 1021.6 1022.6 0.0
19/04:00pm 6.8 1.2 0.0 62 2.7 WSW 19 30 10 16 1021.3 1022.4 0.0
19/03:30pm 7.7 1.2 0.0 58 3.1 SW 24 32 13 17 1021.0 1022.0 0.0
19/03:00pm 7.7 2.0 0.4 60 3.0 WSW 20 35 11 19 1020.8 1021.8 0.0
19/02:30pm 7.6 1.2 -1.6 52 3.6 WSW 22 39 12 21 1020.9 1021.9 0.0
19/02:00pm 6.4 0.1 -0.8 60 2.8 WSW 22 33 12 18 1020.9 1021.9 0.0
19/01:30pm 6.6 -0.2 -1.5 56 3.1 WSW 24 33 13 18 1020.8 1021.8 0.0
19/01:00pm 6.2 -0.3 -2.4 54 3.2 SW 22 32 12 17 1020.9 1021.9 0.0
19/12:30pm 6.9 0.1 -1.7 54 3.3 WSW 24 39 13 21 1020.9 1021.9 0.0
19/12:00pm 6.0 -0.5 -2.1 56 3.0 WSW 22 32 12 17 1021.0 1022.0 0.0
19/11:30am 6.1 0.1 -1.3 59 2.8 WSW 20 32 11 17 1021.3 1022.4 0.0
19/11:00am 5.9 -1.2 -1.5 59 2.8 WSW 26 39 14 21 1021.7 1022.7 0.0
19/10:30am 4.9 -1.1 -1.8 62 2.5 WSW 20 32 11 17 1021.7 1022.7 0.0
19/10:00am 4.2 -1.7 -2.0 64 2.3 SW 19 30 10 16 1021.7 1022.7 0.0
19/09:30am 4.2 -1.2 -1.0 69 2.0 WSW 17 24 9 13 1021.6 1022.6 0.0
19/09:00am 3.3 -1.8 -1.8 69 1.9 WSW 15 22 8 12 1021.3 1022.4 3.4
19/08:30am 1.7 -2.7 -2.2 75 1.4 W 11 17 6 9 1021.2 1022.2 3.4
19/08:00am 1.7 -2.6 -1.9 77 1.3 W 11 17 6 9 1020.9 1021.9 3.4
19/07:30am 1.2 -3.1 -1.9 80 1.1 WNW 11 17 6 9 1020.5 1021.5 3.4
19/07:00am 1.3 -3.1 -2.1 78 1.2 W 11 17 6 9 1020.1 1021.1 3.4
19/06:30am 1.3 -2.7 -2.1 78 1.2 W 9 17 5 9 1019.6 1020.6 3.4
19/06:00am 1.5 -3.3 -2.3 76 1.3 WSW 13 19 7 10 1019.3 1020.2 3.4
19/05:30am 1.6 -3.6 -2.5 74 1.4 WSW 15 20 8 11 1018.8 1019.8 3.4
19/05:00am 1.4 -3.8 -3.1 72 1.6 WSW 15 22 8 12 1018.4 1019.4 3.4
19/04:30am 1.5 -4.6 -3.6 69 1.8 WSW 19 28 10 15 1018.0 1019.0 3.4
19/04:00am 1.9 -3.8 -3.4 68 1.8 SW 17 24 9 13 1017.6 1018.5 3.4
19/03:30am 1.6 -3.3 -3.7 68 1.9 WSW 13 19 7 10 1017.2 1018.1 3.4
19/03:00am 1.8 -3.4 -3.1 70 1.7 SW 15 26 8 14 1017.0 1017.9 3.4
19/02:30am 1.7 -3.5 -2.6 73 1.5 WSW 15 20 8 11 1016.8 1017.8 3.4
19/02:00am 1.6 -3.2 -2.3 75 1.4 SW 13 19 7 10 1016.7 1017.7 3.4
19/01:30am 1.5 -4.0 -2.3 76 1.3 SW 17 22 9 12 1016.3 1017.3 3.4
19/01:00am 1.5 -4.4 -1.9 78 1.2 SW 19 24 10 13 1016.0 1017.0 3.4
19/12:30am 1.6 -3.8 -1.6 79 1.2 SW 17 24 9 13 1015.5 1016.4 3.4
19/12:00am 1.4 -4.4 -1.2 83 0.9 SSW 19 28 10 15 1015.2 1016.1 3.4
 
Date/Time
EST
Temp
°C
App
Temp
°C
Dew
Point
°C
Rel
Hum
%
Delta-T
°C
Wind Press
QNH
hPa
Press
MSL
hPa
Rain since
9am
mm
Dir  Spd
km/h
Gust
km/h
Spd
kts
Gust
kts
18/11:30pm 1.8 -3.6 -1.6 78 1.2 SW 17 28 9 15 1015.0 1015.9 3.4
18/11:00pm 1.5 -3.2 -1.6 80 1.1 SW 13 19 7 10 1014.7 1015.6 3.4
18/10:30pm 1.6 -4.2 -1.8 78 1.2 SSW 19 26 10 14 1014.4 1015.4 3.4
18/10:00pm 1.5 -3.6 -1.9 78 1.2 SW 15 24 8 13 1014.0 1014.9 3.4
18/09:30pm 0.7 -3.2 -1.5 85 0.8 SW 9 13 5 7 1013.7 1014.6 3.4
18/09:00pm 0.5 -3.3 -0.8 91 0.5 SW 9 15 5 8 1013.3 1014.2 3.4
18/08:30pm 1.2 -5.3 0.0 92 0.5 SSW 24 33 13 18 1012.7 1013.6 3.4
18/08:00pm 1.4 -4.4 -0.1 90 0.6 SSW 20 32 11 17 1012.2 1013.2 3.2
18/07:30pm 1.7 -4.9 -0.1 88 0.7 SW 24 43 13 23 1011.6 1012.5 3.0
18/07:00pm 2.2 -4.0 -0.1 85 0.9 SSW 22 30 12 16 1011.1 1012.0 3.0
18/06:30pm 1.8 -3.9 0.5 91 0.5 SSW 20 28 11 15 1010.6 1011.5 3.0
18/06:00pm 2.3 -4.2 0.2 86 0.8 SSW 24 33 13 18 1009.8 1010.7 2.6
18/05:30pm 2.5 -3.3 -0.1 83 1.0 SSW 20 30 11 16 1008.9 1009.8 2.6
18/05:00pm 2.9 -3.7 -0.5 78 1.3 SSW 24 35 13 19 1008.2 1009.0 2.6
18/04:30pm 3.0 -2.8 0.2 82 1.1 SSW 20 35 11 19 1007.4 1008.3 2.6
18/04:00pm 3.0 -4.2 0.4 83 1.0 SSW 28 44 15 24 1006.7 1007.5 2.6
18/03:30pm 3.1 -2.9 1.2 87 0.8 S 22 35 12 19 1006.2 1007.0 2.6
18/03:00pm 3.4 -1.9 1.9 90 0.6 SSW 19 28 10 15 1005.4 1006.3 2.6
18/02:30pm 3.9 -1.6 1.9 87 0.8 SSW 20 37 11 20 1004.8 1005.6 2.6
18/02:00pm 3.2 -1.7 2.3 94 0.4 SSW 17 28 9 15 1004.3 1005.1 2.6
18/01:30pm 2.5 -3.4 1.6 94 0.4 SSW 22 33 12 18 1003.9 1004.7 1.6
18/01:00pm 4.3 -1.3 1.3 81 1.2 S 20 33 11 18 1003.3 1004.1 0.2
18/12:30pm 3.8 -1.5 1.7 86 0.8 S 19 30 10 16 1002.8 1003.6 0.2
18/12:00pm 5.0 0.2 0.4 72 1.8 SSW 15 24 8 13 1002.4 1003.2 0.0
18/11:30am 5.2 -1.0 -0.4 67 2.2 SSW 22 32 12 17 1002.2 1003.0 0.0
18/11:00am 6.0 0.3 0.6 68 2.2 SW 20 30 11 16 1001.8 1002.6 0.0
18/10:30am 5.0 -0.7 0.6 73 1.8 SW 20 33 11 18 1001.5 1002.3 0.0
18/10:00am 4.6 -1.0 0.9 77 1.5 SW 20 32 11 17 1000.7 1001.5 0.0
18/09:30am 2.7 -1.6 0.8 87 0.7 WSW 13 17 7 9 1000.6 1001.4 0.0
18/09:00am 2.8 -1.4 1.6 92 0.5 WSW 13 20 7 11 1000.1 1000.9 0.6
18/08:30am 2.5 -0.9 1.6 94 0.4 WSW 9 13 5 7 999.8 1000.6 0.6
18/08:00am 2.4 -1.0 1.7 95 0.3 WSW 9 15 5 8 999.5 1000.2 0.4
18/07:30am 1.9 -1.6 1.0 94 0.3 WNW 9 11 5 6 998.8 999.5 0.4
18/07:00am 2.0 -1.2 0.7 91 0.5 WSW 7 13 4 7 998.2 999.0 0.0
18/06:30am 2.1 -1.5 0.8 91 0.5 W 9 17 5 9 997.5 998.2 0.0
18/06:00am 1.0 -2.7 -0.1 92 0.4 WSW 9 15 5 8 997.0 997.7 0.0
18/05:30am 1.1 -2.1 -0.2 91 0.5 SSW 6 11 3 6 996.4 997.1 0.0
18/05:00am 1.0 -2.8 -0.9 87 0.7 SW 9 13 5 7 996.0 996.8 0.0
18/04:30am 1.6 -2.5 0.0 89 0.6 WSW 11 17 6 9 995.7 996.4 0.0
18/04:00am 1.5 -3.3 -0.1 89 0.6 W 15 20 8 11 995.3 996.0 0.0
18/03:30am 1.3 -2.8 -0.3 89 0.6 W 11 17 6 9 995.0 995.7 0.0
18/03:00am 1.2 -3.0 -0.6 88 0.7 WNW 11 17 6 9 994.9 995.6 0.0
18/02:30am 1.6 -2.5 -0.5 86 0.8 W 11 17 6 9 994.8 995.5 0.0
18/02:00am 1.9 -2.9 0.0 87 0.7 W 15 22 8 12 994.4 995.1 0.0
18/01:30am 1.5 -3.7 0.0 90 0.6 WNW 17 26 9 14 994.1 994.7 0.0
18/01:00am 1.2 -4.1 -0.3 90 0.6 WNW 17 20 9 11 994.3 995.0 0.0
18/12:30am 1.6 -2.4 0.3 91 0.5 W 11 19 6 10 994.1 994.7 0.0
18/12:00am 1.7 -4.1 0.1 89 0.6 WNW 20 26 11 14 993.9 994.6 0.0
 
Date/Time
EST
Temp
°C
App
Temp
°C
Dew
Point
°C
Rel
Hum
%
Delta-T
°C
Wind Press
QNH
hPa
Press
MSL
hPa
Rain since
9am
mm
Dir  Spd
km/h
Gust
km/h
Spd
kts
Gust
kts
17/11:30pm 2.3 -2.8 0.5 88 0.7 NW 17 19 9 10 993.7 994.4 0.0
17/11:00pm 3.4 -0.6 0.8 83 1.0 W 11 17 6 9 993.8 994.5 0.0
17/10:30pm 3.5 1.3 0.9 83 1.0 NE 2 9 1 5 994.2 994.9 0.0
17/10:00pm 3.0 -0.6 0.7 85 0.9 NW 9 11 5 6 993.9 994.6 0.0
17/09:30pm 2.9 -1.5 0.6 85 0.9 NW 13 17 7 9 993.5 994.2 0.0
17/09:00pm 2.8 -2.3 0.7 86 0.8 WNW 17 24 9 13 993.2 993.9 0.0
17/08:30pm 3.0 -1.7 0.6 84 0.9 W 15 24 8 13 993.0 993.7 0.0
17/08:00pm 3.5 -2.5 1.1 84 1.0 WNW 22 32 12 17 992.7 993.4 0.0
17/07:30pm 3.7 -3.0 1.3 84 1.0 NW 26 39 14 21 992.7 993.4 0.0
17/07:00pm 3.5 -2.9 0.9 83 1.0 WNW 24 32 13 17 992.6 993.3 0.0
17/06:30pm 4.5 -0.5 1.2 79 1.3 WNW 17 24 9 13 992.2 992.8 0.0
17/06:00pm 5.1 0.4 1.0 75 1.7 NW 15 20 8 11 991.9 992.5 0.0
17/05:30pm 5.4 2.3 1.1 74 1.7 N 7 15 4 8 991.6 992.3 0.0
17/05:00pm 6.0 2.9 1.5 73 1.9 NW 7 15 4 8 991.0 991.7 0.0
17/04:30pm 5.2 0.6 1.7 78 1.4 NW 15 28 8 15 990.4 991.0 0.0
17/04:17pm 5.4 -2.0 1.7 77 1.5 WNW 30 48 16 26 990.2 990.8 0.0
17/04:00pm 6.1 -1.8 2.2 76 1.7 NW 33 46 18 25 989.6 990.2 0.0
17/03:33pm 5.8 -1.8 2.6 80 1.4 NW 32 54 17 29 989.8 990.4 0.0

Other Formats:

Comma delimited format used in spreadsheet applications
http://www.bom.gov.au/fwo/IDT60801/IDT60801.94960.axf

JavaScript Object Notation format (JSON) in row-major order
http://www.bom.gov.au/fwo/IDT60801/IDT60801.94960.json